createdAt,value
2018-04-16T00:00:16.133Z,14.67
2018-04-16T00:02:43.755Z,14.59
2018-04-16T00:05:11.471Z,14.56
2018-04-16T00:07:39.077Z,14.52
2018-04-16T00:10:06.845Z,14.39
2018-04-16T00:12:34.451Z,14.38
2018-04-16T00:15:02.101Z,14.29
2018-04-16T00:17:29.749Z,14.33
2018-04-16T00:19:57.389Z,14.19
2018-04-16T00:22:25.017Z,14.19
2018-04-16T00:24:52.653Z,14.24
2018-04-16T00:27:20.340Z,13.98
2018-04-16T00:29:47.961Z,14.07
2018-04-16T00:35:26.545Z,14.06
2018-04-16T00:37:59.655Z,13.75
2018-04-16T00:40:32.957Z,13.83
2018-04-16T00:43:05.937Z,13.91
2018-04-16T00:45:39.059Z,13.85
2018-04-16T00:48:12.033Z,13.74
2018-04-16T00:53:57.682Z,13.82
2018-04-16T00:56:30.860Z,13.87
2018-04-16T00:59:04.108Z,13.90
2018-04-16T01:01:37.225Z,13.62
2018-04-16T01:04:10.485Z,13.41
2018-04-16T01:06:43.593Z,13.51
2018-04-16T01:09:16.585Z,13.58
2018-04-16T01:11:49.706Z,13.68
2018-04-16T01:14:22.857Z,13.69
2018-04-16T01:16:56.025Z,13.53
2018-04-16T01:19:29.161Z,13.37
2018-04-16T01:22:02.346Z,13.48
2018-04-16T01:24:35.333Z,13.52
2018-04-16T01:27:08.497Z,13.24
2018-04-16T01:29:41.597Z,13.39
2018-04-16T01:32:14.718Z,13.39
2018-04-16T01:34:47.849Z,13.15
2018-04-16T01:37:21.031Z,13.34
2018-04-16T01:39:54.281Z,13.30
2018-04-16T01:45:29.281Z,13.39
2018-04-16T01:48:02.437Z,13.45
2018-04-16T01:50:35.651Z,13.15
2018-04-16T01:53:08.889Z,13.23
2018-04-16T01:55:41.975Z,13.04
2018-04-16T01:58:15.066Z,13.15
2018-04-16T02:00:48.206Z,13.14
2018-04-16T02:03:21.235Z,13.15
2018-04-16T02:05:54.409Z,12.89
2018-04-16T02:08:27.557Z,12.88
2018-04-16T02:11:00.688Z,12.95
2018-04-16T02:13:33.926Z,12.77
2018-04-16T02:16:17.125Z,12.87
2018-04-16T02:18:50.502Z,12.70
2018-04-16T02:21:23.673Z,12.64
2018-04-16T02:23:56.821Z,12.59
2018-04-16T02:26:29.964Z,12.54
2018-04-16T02:29:03.105Z,12.52
2018-04-16T02:31:36.281Z,12.67
2018-04-16T02:34:09.566Z,12.66
2018-04-16T02:36:42.710Z,12.61
2018-04-16T02:39:15.833Z,12.54
2018-04-16T02:41:49.115Z,12.47
2018-04-16T02:44:22.383Z,12.35
2018-04-16T02:46:55.365Z,12.41
2018-04-16T02:49:28.534Z,12.48
2018-04-16T02:52:01.590Z,12.49
2018-04-16T02:54:34.806Z,12.43
2018-04-16T02:57:07.946Z,12.50
2018-04-16T03:02:45.621Z,12.43
2018-04-16T03:05:32.936Z,12.23
2018-04-16T03:08:15.493Z,12.21
2018-04-16T03:10:48.797Z,11.98
2018-04-16T03:13:22.132Z,12.00
2018-04-16T03:15:55.080Z,11.88
2018-04-16T03:18:28.238Z,12.13
2018-04-16T03:21:01.280Z,12.22
2018-04-16T03:23:34.513Z,12.00
2018-04-16T03:26:07.501Z,12.02
2018-04-16T03:28:40.513Z,12.08
2018-04-16T03:31:13.745Z,11.95
2018-04-16T03:33:46.925Z,12.01
2018-04-16T03:36:20.066Z,11.90
2018-04-16T03:38:53.201Z,11.93
2018-04-16T03:41:26.377Z,12.01
2018-04-16T03:43:59.501Z,11.96
2018-04-16T03:46:32.571Z,12.12
2018-04-16T03:49:05.690Z,12.11
2018-04-16T03:51:39.793Z,12.17
2018-04-16T03:54:07.492Z,12.14
2018-04-16T03:56:35.111Z,12.05
2018-04-16T03:59:02.719Z,11.93
2018-04-16T04:01:30.359Z,11.98
2018-04-16T04:03:57.969Z,12.15
2018-04-16T04:06:25.582Z,12.04
2018-04-16T04:08:55.928Z,12.09
2018-04-16T04:11:23.586Z,11.98
2018-04-16T04:13:51.218Z,11.97
2018-04-16T04:16:18.907Z,12.03
2018-04-16T04:18:46.546Z,12.04
2018-04-16T04:21:14.187Z,12.03
2018-04-16T04:23:53.680Z,12.07
2018-04-16T04:26:32.916Z,12.05
2018-04-16T04:29:12.173Z,12.13
2018-04-16T04:31:39.849Z,12.13
2018-04-16T04:34:07.451Z,12.21
2018-04-16T04:36:35.058Z,12.25
2018-04-16T04:39:02.731Z,12.51
2018-04-16T04:41:30.447Z,12.47
2018-04-16T04:43:58.045Z,12.55
2018-04-16T04:46:25.682Z,12.52
2018-04-16T04:48:53.291Z,12.55
2018-04-16T04:51:20.893Z,12.53
2018-04-16T04:53:48.493Z,12.71
2018-04-16T04:56:16.197Z,12.72
2018-04-16T04:58:43.810Z,12.71
2018-04-16T05:01:11.413Z,12.98
2018-04-16T05:03:39.115Z,13.22
2018-04-16T05:06:06.722Z,12.96
2018-04-16T05:08:34.331Z,13.09
2018-04-16T05:11:01.985Z,13.17
2018-04-16T05:13:29.619Z,12.95
2018-04-16T05:15:57.217Z,13.31
2018-04-16T05:18:24.869Z,13.32
2018-04-16T05:20:52.473Z,13.35
2018-04-16T05:23:20.073Z,13.05
2018-04-16T05:25:47.717Z,13.27
2018-04-16T05:28:15.401Z,13.21
2018-04-16T05:30:43.065Z,13.28
2018-04-16T05:33:10.749Z,13.35
2018-04-16T05:35:38.381Z,13.38
2018-04-16T05:38:06.031Z,13.43
2018-04-16T05:40:33.681Z,13.30
2018-04-16T05:43:01.269Z,13.35
2018-04-16T05:45:28.916Z,13.56
2018-04-16T05:47:56.537Z,13.82
2018-04-16T05:50:24.158Z,13.99
2018-04-16T05:52:51.769Z,13.90
2018-04-16T05:55:19.459Z,13.65
2018-04-16T05:57:47.101Z,13.75
2018-04-16T06:00:14.737Z,13.95
2018-04-16T06:02:42.386Z,13.97
2018-04-16T06:05:09.986Z,14.00
2018-04-16T06:07:37.590Z,14.01
2018-04-16T06:10:05.234Z,14.06
2018-04-16T06:12:32.829Z,14.11
2018-04-16T06:15:00.421Z,14.39
2018-04-16T06:17:28.027Z,14.48
2018-04-16T06:19:55.656Z,14.46
2018-04-16T06:22:23.269Z,14.40
2018-04-16T06:24:50.945Z,14.45
2018-04-16T06:27:18.601Z,14.58
2018-04-16T06:29:46.209Z,14.72
2018-04-16T06:32:13.891Z,14.95
2018-04-16T06:34:41.544Z,15.09
2018-04-16T06:37:09.129Z,15.04
2018-04-16T06:39:36.757Z,14.92
2018-04-16T06:42:04.351Z,14.85
2018-04-16T06:44:31.995Z,15.26
2018-04-16T06:46:59.627Z,15.33
2018-04-16T06:49:27.369Z,15.46
2018-04-16T06:51:55.049Z,15.23
2018-04-16T06:54:22.701Z,15.28
2018-04-16T06:56:50.345Z,15.48
2018-04-16T06:59:17.990Z,15.56
2018-04-16T07:01:45.592Z,15.40
2018-04-16T07:04:13.225Z,15.68
2018-04-16T07:06:40.862Z,15.87
2018-04-16T07:09:08.503Z,15.93
2018-04-16T07:11:36.117Z,16.10
2018-04-16T07:14:03.786Z,16.28
2018-04-16T07:16:31.422Z,16.53
2018-04-16T07:18:59.069Z,16.61
2018-04-16T07:21:26.742Z,16.59
2018-04-16T07:23:54.373Z,16.81
2018-04-16T07:26:21.979Z,16.86
2018-04-16T07:28:49.613Z,16.57
2018-04-16T07:31:17.233Z,16.28
2018-04-16T07:33:44.837Z,16.59
2018-04-16T07:36:12.441Z,16.80
2018-04-16T07:38:40.114Z,16.51
2018-04-16T07:41:07.741Z,16.26
2018-04-16T07:43:35.388Z,16.13
2018-04-16T07:46:03.054Z,16.14
2018-04-16T07:48:30.641Z,16.18
2018-04-16T07:50:58.273Z,16.22
2018-04-16T07:53:25.881Z,15.99
2018-04-16T07:55:53.481Z,15.72
2018-04-16T07:58:21.085Z,15.49
2018-04-16T08:00:48.742Z,15.50
2018-04-16T08:03:16.353Z,15.45
2018-04-16T08:05:43.996Z,15.34
2018-04-16T08:08:11.628Z,15.49
2018-04-16T08:10:39.258Z,15.50
2018-04-16T08:13:06.926Z,15.46
2018-04-16T08:15:34.533Z,15.83
2018-04-16T08:18:02.133Z,15.90
2018-04-16T08:20:29.777Z,15.74
2018-04-16T08:22:57.409Z,15.87
2018-04-16T08:25:25.014Z,15.95
2018-04-16T08:27:52.629Z,16.03
2018-04-16T08:30:20.286Z,15.88
2018-04-16T08:32:47.917Z,15.99
2018-04-16T08:35:15.512Z,16.12
2018-04-16T08:37:43.133Z,16.12
2018-04-16T08:40:10.740Z,16.17
2018-04-16T08:42:38.373Z,16.13
2018-04-16T08:45:05.968Z,16.04
2018-04-16T08:47:33.558Z,15.98
2018-04-16T08:50:01.197Z,16.38
2018-04-16T08:52:28.809Z,16.55
2018-04-16T08:54:56.417Z,16.37
2018-04-16T08:57:24.054Z,16.47
2018-04-16T08:59:51.683Z,16.21
2018-04-16T09:02:19.325Z,16.47
2018-04-16T09:04:46.993Z,16.45
2018-04-16T09:07:14.602Z,16.70
2018-04-16T09:09:42.284Z,16.80
2018-04-16T09:12:09.881Z,16.79
2018-04-16T09:14:37.501Z,16.76
2018-04-16T09:17:05.112Z,16.60
2018-04-16T09:19:33.045Z,16.69
2018-04-16T09:22:00.765Z,16.63
2018-04-16T09:24:28.361Z,16.79
2018-04-16T09:26:55.977Z,16.68
2018-04-16T09:29:23.565Z,16.67
2018-04-16T09:31:51.173Z,16.79
2018-04-16T09:34:18.802Z,16.74
2018-04-16T09:36:46.455Z,17.04
2018-04-16T09:39:14.049Z,17.27
2018-04-16T09:41:41.649Z,17.27
2018-04-16T09:44:09.249Z,17.37
2018-04-16T09:46:36.875Z,17.54
2018-04-16T09:49:04.545Z,17.86
2018-04-16T09:51:32.157Z,18.18
2018-04-16T09:53:59.774Z,18.01
2018-04-16T09:56:27.401Z,18.22
2018-04-16T09:58:54.997Z,18.19
2018-04-16T10:01:22.681Z,18.45
2018-04-16T10:03:50.285Z,17.89
2018-04-16T10:06:17.889Z,17.91
2018-04-16T10:08:45.507Z,17.90
2018-04-16T10:11:13.115Z,18.09
2018-04-16T10:13:40.829Z,18.03
2018-04-16T10:16:08.429Z,18.33
2018-04-16T10:18:36.020Z,18.04
2018-04-16T10:21:03.635Z,18.26
2018-04-16T10:23:31.253Z,18.32
2018-04-16T10:25:58.877Z,18.30
2018-04-16T10:28:26.500Z,18.10
2018-04-16T10:30:54.088Z,18.01
2018-04-16T10:33:21.669Z,17.71
2018-04-16T10:35:49.296Z,17.74
2018-04-16T10:38:16.898Z,18.02
2018-04-16T10:40:44.493Z,18.26
2018-04-16T10:43:12.106Z,18.40
2018-04-16T10:45:39.777Z,18.10
2018-04-16T10:48:07.393Z,18.67
2018-04-16T10:50:34.989Z,18.57
2018-04-16T10:53:02.606Z,18.99
2018-04-16T10:55:30.193Z,19.09
2018-04-16T10:57:57.814Z,19.02
2018-04-16T11:00:25.448Z,19.36
2018-04-16T11:02:53.063Z,19.49
2018-04-16T11:05:20.725Z,19.12
2018-04-16T11:07:48.349Z,19.26
2018-04-16T11:10:15.937Z,19.27
2018-04-16T11:12:43.542Z,19.34
2018-04-16T11:15:11.161Z,18.94
2018-04-16T11:17:38.789Z,19.03
2018-04-16T11:20:06.381Z,19.17
2018-04-16T11:22:34.005Z,18.59
2018-04-16T11:25:01.646Z,18.75
2018-04-16T11:27:29.289Z,19.04
2018-04-16T11:29:56.949Z,18.91
2018-04-16T11:32:24.585Z,19.16
2018-04-16T11:34:52.199Z,19.30
2018-04-16T11:37:19.789Z,19.32
2018-04-16T11:39:47.441Z,19.14
2018-04-16T11:42:15.042Z,19.23
2018-04-16T11:44:42.649Z,19.46
2018-04-16T11:47:10.293Z,19.70
2018-04-16T11:49:37.895Z,20.19
2018-04-16T11:52:05.549Z,20.20
2018-04-16T11:54:33.178Z,19.96
2018-04-16T11:57:00.776Z,19.92
2018-04-16T11:59:28.388Z,19.54
2018-04-16T12:01:55.995Z,19.62
2018-04-16T12:04:23.715Z,19.96
2018-04-16T12:06:51.295Z,20.01
2018-04-16T12:09:18.925Z,19.95
2018-04-16T12:11:46.518Z,19.81
2018-04-16T12:14:14.142Z,19.51
2018-04-16T12:16:41.793Z,19.44
2018-04-16T12:19:09.436Z,19.05
2018-04-16T12:21:37.065Z,18.69
2018-04-16T12:24:04.672Z,17.98
2018-04-16T12:26:32.313Z,18.11
2018-04-16T12:28:59.926Z,18.69
2018-04-16T12:31:27.543Z,19.03
2018-04-16T12:33:55.239Z,18.75
2018-04-16T12:36:22.929Z,18.70
2018-04-16T12:38:50.561Z,18.62
2018-04-16T12:41:18.221Z,18.73
2018-04-16T12:43:45.930Z,19.24
2018-04-16T12:46:13.608Z,19.28
2018-04-16T12:48:41.229Z,19.32
2018-04-16T12:51:08.822Z,19.54
2018-04-16T12:53:36.510Z,19.61
2018-04-16T12:56:04.137Z,19.29
2018-04-16T12:58:31.914Z,19.37
2018-04-16T13:00:59.571Z,18.97
2018-04-16T13:03:27.256Z,19.26
2018-04-16T13:05:54.897Z,19.55
2018-04-16T13:08:22.614Z,19.54
2018-04-16T13:10:50.302Z,19.11
2018-04-16T13:13:17.884Z,19.27
2018-04-16T13:15:45.497Z,19.54
2018-04-16T13:18:13.207Z,19.74
2018-04-16T13:20:40.887Z,19.77
2018-04-16T13:23:08.746Z,19.87
2018-04-16T13:25:36.434Z,19.82
2018-04-16T13:28:04.063Z,19.89
2018-04-16T13:30:31.774Z,19.53
2018-04-16T13:32:59.481Z,19.58
2018-04-16T13:35:27.159Z,19.66
2018-04-16T13:37:54.784Z,19.61
2018-04-16T13:40:22.397Z,19.25
2018-04-16T13:42:50.029Z,19.23
2018-04-16T13:45:17.621Z,19.23
2018-04-16T13:47:45.209Z,19.29
2018-04-16T13:50:12.804Z,19.50
2018-04-16T13:52:40.425Z,19.04
2018-04-16T13:55:08.028Z,19.00
2018-04-16T13:57:35.690Z,18.90
2018-04-16T14:00:03.286Z,19.21
2018-04-16T14:02:31.227Z,19.36
2018-04-16T14:04:58.850Z,18.97
2018-04-16T14:07:26.449Z,19.12
2018-04-16T14:09:54.092Z,19.16
2018-04-16T14:12:21.673Z,19.13
2018-04-16T14:14:49.253Z,19.14
2018-04-16T14:17:16.845Z,19.19
2018-04-16T14:19:44.441Z,19.20
2018-04-16T14:22:12.035Z,19.26
2018-04-16T14:24:39.627Z,19.00
2018-04-16T14:27:07.262Z,18.85
2018-04-16T14:29:34.877Z,18.72
2018-04-16T14:32:02.465Z,18.64
2018-04-16T14:34:30.098Z,18.38
2018-04-16T14:36:57.714Z,18.38
2018-04-16T14:39:25.325Z,18.23
2018-04-16T14:41:52.926Z,18.54
2018-04-16T14:44:20.567Z,18.35
2018-04-16T14:46:48.168Z,18.49
2018-04-16T14:49:15.789Z,18.62
2018-04-16T14:51:43.480Z,18.40
2018-04-16T14:54:11.165Z,18.16
2018-04-16T14:56:38.815Z,18.19
2018-04-16T14:59:06.478Z,18.43
2018-04-16T15:01:34.166Z,18.41
2018-04-16T15:04:01.962Z,18.43
2018-04-16T15:06:29.652Z,18.02
2018-04-16T15:08:57.266Z,17.99
2018-04-16T15:11:24.918Z,17.97
2018-04-16T15:13:52.558Z,17.98
2018-04-16T15:16:20.190Z,18.08
2018-04-16T15:18:47.864Z,17.88
2018-04-16T15:21:15.552Z,18.00
2018-04-16T15:23:43.190Z,17.92
2018-04-16T15:26:10.845Z,17.93
2018-04-16T15:28:38.550Z,18.11
2018-04-16T15:31:06.178Z,18.02
2018-04-16T15:33:33.841Z,18.08
2018-04-16T15:36:01.503Z,18.21
2018-04-16T15:38:29.138Z,18.20
2018-04-16T15:40:56.773Z,18.22
2018-04-16T15:43:24.485Z,18.19
2018-04-16T15:45:52.142Z,17.94
2018-04-16T15:48:19.790Z,17.96
2018-04-16T15:50:47.771Z,17.72
2018-04-16T15:53:15.490Z,17.74
2018-04-16T15:55:43.118Z,17.73
2018-04-16T15:58:10.757Z,18.07
2018-04-16T16:00:38.461Z,18.00
2018-04-16T16:03:06.087Z,18.10
2018-04-16T16:05:33.706Z,18.06
2018-04-16T16:08:01.491Z,17.65
2018-04-16T16:10:29.085Z,17.63
2018-04-16T16:12:56.694Z,17.46
2018-04-16T16:15:24.309Z,17.45
2018-04-16T16:17:51.938Z,17.65
2018-04-16T16:20:19.527Z,17.44
2018-04-16T16:22:47.161Z,17.48
2018-04-16T16:25:14.821Z,17.69
2018-04-16T16:27:42.411Z,17.81
2018-04-16T16:30:10.027Z,17.75
2018-04-16T16:32:38.057Z,17.70
2018-04-16T16:35:05.682Z,17.45
2018-04-16T16:37:33.351Z,17.23
2018-04-16T16:40:00.950Z,17.33
2018-04-16T16:42:28.586Z,17.48
2018-04-16T16:44:56.245Z,17.28
2018-04-16T16:47:23.891Z,17.23
2018-04-16T16:49:51.500Z,17.35
2018-04-16T16:52:19.131Z,17.36
2018-04-16T16:54:46.733Z,17.34
2018-04-16T16:57:14.326Z,17.16
2018-04-16T16:59:41.961Z,17.11
2018-04-16T17:02:09.580Z,17.14
2018-04-16T17:04:37.268Z,17.05
2018-04-16T17:07:04.877Z,17.05
2018-04-16T17:09:32.506Z,17.13
2018-04-16T17:12:00.127Z,17.18
2018-04-16T17:14:27.748Z,16.99
2018-04-16T17:16:55.393Z,17.08
2018-04-16T17:19:22.993Z,17.25
2018-04-16T17:21:50.722Z,17.20
2018-04-16T17:24:18.478Z,17.01
2018-04-16T17:26:46.286Z,17.04
2018-04-16T17:29:15.210Z,16.89
2018-04-16T17:31:42.937Z,16.97
2018-04-16T17:34:10.560Z,17.02
2018-04-16T17:36:38.187Z,17.18
2018-04-16T17:39:06.508Z,16.98
2018-04-16T17:41:34.139Z,17.03
2018-04-16T17:44:01.755Z,17.14
2018-04-16T17:46:29.375Z,17.00
2018-04-16T17:48:56.997Z,16.82
2018-04-16T17:51:24.597Z,17.05
2018-04-16T17:53:52.282Z,16.95
2018-04-16T17:56:19.911Z,16.91
2018-04-16T17:58:47.523Z,16.73
2018-04-16T18:01:15.189Z,16.80
2018-04-16T18:03:42.809Z,16.79
2018-04-16T18:06:10.429Z,16.74
2018-04-16T18:08:38.045Z,16.62
2018-04-16T18:11:05.658Z,16.70
2018-04-16T18:13:33.310Z,16.71
2018-04-16T18:16:00.940Z,16.58
2018-04-16T18:18:28.645Z,16.46
2018-04-16T18:20:56.317Z,16.33
2018-04-16T18:23:23.914Z,16.32
2018-04-16T18:25:51.553Z,16.46
2018-04-16T18:28:19.155Z,16.47
2018-04-16T18:33:34.805Z,16.04
2018-04-16T18:36:02.414Z,15.83
2018-04-16T18:38:30.094Z,15.76
2018-04-16T18:40:57.718Z,15.82
2018-04-16T18:43:25.324Z,15.73
2018-04-16T18:45:52.921Z,15.72
2018-04-16T18:48:20.550Z,15.65
2018-04-16T18:50:48.168Z,15.68
2018-04-16T18:53:15.787Z,15.69
2018-04-16T18:55:43.385Z,15.48
2018-04-16T18:58:11.023Z,15.65
2018-04-16T19:00:38.622Z,15.63
2018-04-16T19:03:06.241Z,15.58
2018-04-16T19:05:33.863Z,15.30
2018-04-16T19:08:01.461Z,15.29
2018-04-16T19:10:29.094Z,15.29
2018-04-16T19:12:56.729Z,15.16
2018-04-16T19:15:24.415Z,15.09
2018-04-16T19:17:57.955Z,15.22
2018-04-16T19:20:31.192Z,15.24
2018-04-16T19:22:58.841Z,15.43
2018-04-16T19:25:26.567Z,15.34
2018-04-16T19:27:59.727Z,15.37
2018-04-16T19:30:27.321Z,15.15
2018-04-16T19:33:00.588Z,15.12
2018-04-16T19:35:28.193Z,15.19
2018-04-16T19:37:55.900Z,15.16
2018-04-16T19:40:23.525Z,15.00
2018-04-16T19:42:51.240Z,15.06
2018-04-16T19:45:18.842Z,15.05
2018-04-16T19:47:46.581Z,15.06
2018-04-16T19:50:14.221Z,14.99
2018-04-16T19:52:41.813Z,15.05
2018-04-16T19:55:09.416Z,15.11
2018-04-16T19:57:42.673Z,14.93
2018-04-16T20:00:10.275Z,14.96
2018-04-16T20:02:43.316Z,14.85
2018-04-16T20:05:10.945Z,15.08
2018-04-16T20:07:38.570Z,15.04
2018-04-16T20:10:06.237Z,14.85
2018-04-16T20:12:33.806Z,14.79
2018-04-16T20:15:01.397Z,14.83
2018-04-16T20:17:29.047Z,14.81
2018-04-16T20:19:56.645Z,14.88
2018-04-16T20:22:24.269Z,14.75
2018-04-16T20:24:51.879Z,14.77
2018-04-16T20:27:19.543Z,14.73
2018-04-16T20:29:47.134Z,14.75
2018-04-16T20:32:14.762Z,14.81
2018-04-16T20:34:42.416Z,14.74
2018-04-16T20:37:10.053Z,14.77
2018-04-16T20:39:37.643Z,14.77
2018-04-16T20:42:05.241Z,14.70
2018-04-16T20:44:32.865Z,14.58
2018-04-16T20:47:00.469Z,14.69
2018-04-16T20:49:28.070Z,14.68
2018-04-16T20:51:55.669Z,14.53
2018-04-16T20:54:23.275Z,14.58
2018-04-16T20:56:50.861Z,14.66
2018-04-16T20:59:18.493Z,14.69
2018-04-16T21:01:46.923Z,14.66
2018-04-16T21:04:14.525Z,14.64
2018-04-16T21:06:42.157Z,14.70
2018-04-16T21:09:09.799Z,14.63
2018-04-16T21:11:37.402Z,14.66
2018-04-16T21:14:05.007Z,14.74
2018-04-16T21:16:32.602Z,14.62
2018-04-16T21:19:00.229Z,14.76
2018-04-16T21:21:27.921Z,14.77
2018-04-16T21:23:55.506Z,14.69
2018-04-16T21:26:23.146Z,14.71
2018-04-16T21:28:50.765Z,14.67
2018-04-16T21:37:06.822Z,14.50
2018-04-16T21:39:34.475Z,14.43
2018-04-16T21:42:02.081Z,14.62
2018-04-16T21:44:29.693Z,14.62
2018-04-16T21:46:57.349Z,14.67
2018-04-16T21:49:24.969Z,14.67
2018-04-16T21:51:52.570Z,14.63
2018-04-16T21:54:20.258Z,14.57
2018-04-16T21:56:47.909Z,14.56
2018-04-16T21:59:15.541Z,14.42
2018-04-16T22:01:43.153Z,14.42
2018-04-16T22:04:10.750Z,14.34
2018-04-16T22:06:38.361Z,14.39
2018-04-16T22:09:06.022Z,14.52
2018-04-16T22:11:33.659Z,14.33
2018-04-16T22:14:01.340Z,14.40
2018-04-16T22:16:28.931Z,14.42
2018-04-16T22:18:56.571Z,14.43
2018-04-16T22:21:24.169Z,14.36
2018-04-16T22:23:51.773Z,14.27
2018-04-16T22:26:19.432Z,14.43
2018-04-16T22:28:47.089Z,14.32
2018-04-16T22:31:14.749Z,14.35
2018-04-16T22:33:42.415Z,14.14
2018-04-16T22:36:10.006Z,14.13
2018-04-16T22:38:37.609Z,14.20
2018-04-16T22:41:05.233Z,14.18
2018-04-16T22:43:32.817Z,14.17
2018-04-16T22:46:00.444Z,14.26
2018-04-16T22:48:28.088Z,14.17
2018-04-16T22:50:55.685Z,14.08
2018-04-16T22:53:23.281Z,14.27
2018-04-16T22:55:50.884Z,14.25
2018-04-16T22:58:18.478Z,14.28
2018-04-16T23:00:46.069Z,14.14
2018-04-16T23:03:13.665Z,14.20
2018-04-16T23:05:41.265Z,14.08
2018-04-16T23:08:08.901Z,14.13
2018-04-16T23:10:36.532Z,14.11
2018-04-16T23:13:04.175Z,14.16
2018-04-16T23:15:31.765Z,14.05
2018-04-16T23:17:59.384Z,14.15
2018-04-16T23:20:26.973Z,14.17
2018-04-16T23:22:54.564Z,14.29
2018-04-16T23:25:22.154Z,14.05
2018-04-16T23:27:49.789Z,14.06
2018-04-16T23:30:17.425Z,14.15
2018-04-16T23:32:45.015Z,14.07
2018-04-16T23:35:12.613Z,14.04
2018-04-16T23:37:40.225Z,14.21
2018-04-16T23:40:07.810Z,14.08
2018-04-16T23:42:35.417Z,14.35
2018-04-16T23:45:03.041Z,14.21
2018-04-16T23:47:30.658Z,14.23
2018-04-16T23:49:58.298Z,14.15
2018-04-16T23:52:25.900Z,14.09
2018-04-16T23:54:53.577Z,14.06
2018-04-16T23:57:21.184Z,14.03
2018-04-16T23:59:48.778Z,14.04
